createdAt,value
2022-09-02T00:01:33.114Z,17.57
2022-09-02T00:04:02.428Z,17.56
2022-09-02T00:06:30.020Z,17.57
2022-09-02T00:08:57.016Z,17.57
2022-09-02T00:11:30.814Z,17.58
2022-09-02T00:13:58.424Z,17.57
2022-09-02T00:16:25.311Z,17.57
2022-09-02T00:18:53.573Z,17.56
2022-09-02T00:21:20.847Z,17.56
2022-09-02T00:23:47.294Z,17.57
2022-09-02T00:26:14.507Z,17.56
2022-09-02T00:28:44.282Z,17.56
2022-09-02T00:31:15.890Z,17.55
2022-09-02T00:33:42.375Z,17.54
2022-09-02T00:36:09.109Z,17.51
2022-09-02T00:38:36.920Z,17.49
2022-09-02T00:41:07.108Z,17.46
2022-09-02T00:43:39.598Z,17.44
2022-09-02T00:46:06.561Z,17.41
2022-09-02T00:48:33.400Z,17.39
2022-09-02T00:51:00.559Z,17.39
2022-09-02T00:53:27.742Z,17.38
2022-09-02T00:55:54.309Z,17.36
2022-09-02T00:58:23.363Z,17.33
2022-09-02T01:00:52.613Z,17.31
2022-09-02T01:03:26.869Z,17.28
2022-09-02T01:05:54.980Z,17.27
2022-09-02T01:08:25.237Z,17.27
2022-09-02T01:10:55.687Z,17.24
2022-09-02T01:13:28.415Z,17.22
2022-09-02T01:16:19.074Z,17.15
2022-09-02T01:18:49.770Z,17.13
2022-09-02T01:21:17.604Z,17.10
2022-09-02T01:23:45.727Z,17.06
2022-09-02T01:26:12.283Z,17.03
2022-09-02T01:28:38.713Z,17.02
2022-09-02T01:31:05.357Z,17.00
2022-09-02T01:33:31.877Z,16.99
2022-09-02T01:35:58.785Z,16.97
2022-09-02T01:38:25.946Z,16.95
2022-09-02T01:40:52.661Z,16.93
2022-09-02T01:43:22.357Z,16.92
2022-09-02T01:45:50.938Z,16.91
2022-09-02T01:48:21.569Z,16.86
2022-09-02T01:50:58.985Z,16.87
2022-09-02T01:53:25.430Z,16.86
2022-09-02T01:55:52.402Z,16.85
2022-09-02T01:58:19.368Z,16.84
2022-09-02T02:00:46.389Z,16.83
2022-09-02T02:03:13.244Z,16.82
2022-09-02T02:05:39.881Z,16.80
2022-09-02T02:08:06.491Z,16.77
2022-09-02T02:10:33.338Z,16.76
2022-09-02T02:13:00.972Z,16.73
2022-09-02T02:17:52.897Z,16.69
2022-09-02T02:20:21.414Z,16.66
2022-09-02T02:22:48.453Z,16.65
2022-09-02T02:25:15.590Z,16.65
2022-09-02T02:27:43.580Z,16.63
2022-09-02T02:30:11.958Z,16.60
2022-09-02T02:32:38.391Z,16.56
2022-09-02T02:35:05.730Z,16.56
2022-09-02T02:37:32.504Z,16.52
2022-09-02T02:39:59.170Z,16.49
2022-09-02T02:42:25.618Z,16.46
2022-09-02T02:44:52.101Z,16.42
2022-09-02T02:47:18.518Z,16.38
2022-09-02T02:49:44.978Z,16.34
2022-09-02T02:52:12.618Z,16.28
2022-09-02T02:54:39.775Z,16.25
2022-09-02T02:57:07.025Z,16.21
2022-09-02T02:59:33.815Z,16.18
2022-09-02T03:02:00.593Z,16.14
2022-09-02T03:04:27.215Z,16.12
2022-09-02T03:06:53.659Z,16.09
2022-09-02T03:09:20.384Z,16.05
2022-09-02T03:11:47.757Z,16.02
2022-09-02T03:14:14.520Z,15.98
2022-09-02T03:16:41.210Z,15.94
2022-09-02T03:19:07.679Z,15.91
2022-09-02T03:21:39.114Z,15.86
2022-09-02T03:24:06.236Z,15.82
2022-09-02T03:26:32.807Z,15.78
2022-09-02T03:28:59.541Z,15.73
2022-09-02T03:31:26.883Z,15.68
2022-09-02T03:33:53.558Z,15.65
2022-09-02T03:36:28.872Z,15.62
2022-09-02T03:38:56.002Z,15.59
2022-09-02T03:41:22.602Z,15.51
2022-09-02T03:43:49.350Z,15.48
2022-09-02T03:46:16.208Z,15.45
2022-09-02T03:48:42.687Z,15.43
2022-09-02T03:51:09.178Z,15.39
2022-09-02T03:53:35.617Z,15.36
2022-09-02T03:56:11.965Z,15.30
2022-09-02T03:58:40.236Z,15.24
2022-09-02T04:01:08.437Z,15.20
2022-09-02T04:03:34.868Z,15.16
2022-09-02T04:06:01.301Z,15.14
2022-09-02T04:08:27.755Z,15.14
2022-09-02T04:10:55.835Z,15.09
2022-09-02T04:13:22.462Z,15.08
2022-09-02T04:15:49.694Z,15.06
2022-09-02T04:18:17.298Z,15.04
2022-09-02T04:20:44.462Z,15.03
2022-09-02T04:23:11.169Z,15.02
2022-09-02T04:25:44.639Z,15.00
2022-09-02T04:28:11.214Z,14.97
2022-09-02T04:30:41.864Z,14.96
2022-09-02T04:33:08.351Z,14.94
2022-09-02T04:35:35.940Z,14.93
2022-09-02T04:38:02.932Z,14.90
2022-09-02T04:40:29.417Z,14.88
2022-09-02T04:42:55.899Z,14.87
2022-09-02T04:45:25.517Z,14.86
2022-09-02T04:47:54.294Z,14.84
2022-09-02T04:50:20.761Z,14.82
2022-09-02T04:52:47.207Z,14.82
2022-09-02T04:55:13.698Z,14.82
2022-09-02T04:57:40.897Z,14.82
2022-09-02T05:00:09.015Z,14.83
2022-09-02T05:02:35.577Z,14.83
2022-09-02T05:05:02.041Z,14.83
2022-09-02T05:07:28.480Z,14.84
2022-09-02T05:10:00.579Z,14.83
2022-09-02T05:12:28.025Z,14.85
2022-09-02T05:14:56.755Z,14.83
2022-09-02T05:17:23.230Z,14.84
2022-09-02T05:19:49.693Z,14.85
2022-09-02T05:22:16.160Z,14.85
2022-09-02T05:24:42.797Z,14.89
2022-09-02T05:27:09.918Z,14.89
2022-09-02T05:29:37.063Z,14.90
2022-09-02T05:32:04.737Z,14.91
2022-09-02T05:34:33.324Z,14.94
2022-09-02T05:36:59.783Z,14.94
2022-09-02T05:39:26.240Z,14.97
2022-09-02T05:41:52.679Z,14.97
2022-09-02T05:44:19.324Z,15.00
2022-09-02T05:46:48.861Z,15.01
2022-09-02T05:49:23.084Z,15.05
2022-09-02T05:51:52.935Z,15.06
2022-09-02T05:54:30.886Z,15.11
2022-09-02T05:57:03.327Z,15.14
2022-09-02T05:59:31.754Z,15.18
2022-09-02T06:01:59.687Z,15.23
2022-09-02T06:04:26.230Z,15.27
2022-09-02T06:06:52.830Z,15.30
2022-09-02T06:09:21.515Z,15.36
2022-09-02T06:11:49.560Z,15.38
2022-09-02T06:14:21.909Z,15.42
2022-09-02T06:16:50.488Z,15.48
2022-09-02T06:19:20.276Z,15.53
2022-09-02T06:21:49.006Z,15.58
2022-09-02T06:24:15.492Z,15.65
2022-09-02T06:26:42.027Z,15.71
2022-09-02T06:29:09.252Z,15.79
2022-09-02T06:31:35.745Z,15.86
2022-09-02T06:34:03.609Z,15.88
2022-09-02T06:36:30.764Z,15.95
2022-09-02T06:38:58.306Z,16.00
2022-09-02T06:41:28.294Z,16.08
2022-09-02T06:44:00.197Z,16.15
2022-09-02T06:46:29.690Z,16.22
2022-09-02T06:48:56.179Z,16.28
2022-09-02T06:51:25.088Z,16.37
2022-09-02T06:53:52.113Z,16.43
2022-09-02T06:56:18.669Z,16.50
2022-09-02T06:58:45.204Z,16.59
2022-09-02T07:01:25.196Z,16.66
2022-09-02T07:04:10.348Z,16.73
2022-09-02T07:06:38.531Z,16.81
2022-09-02T07:09:06.351Z,16.88
2022-09-02T07:11:33.279Z,16.96
2022-09-02T07:14:01.716Z,17.02
2022-09-02T07:16:29.910Z,17.08
2022-09-02T07:18:57.616Z,17.16
2022-09-02T07:21:24.228Z,17.23
2022-09-02T07:23:50.657Z,17.28
2022-09-02T07:26:17.539Z,17.34
2022-09-02T07:28:44.029Z,17.38
2022-09-02T07:31:11.142Z,17.41
2022-09-02T07:33:37.679Z,17.41
2022-09-02T07:36:06.265Z,17.50
2022-09-02T07:38:40.293Z,17.56
2022-09-02T07:41:08.261Z,17.65
2022-09-02T07:43:36.166Z,17.68
2022-09-02T07:46:03.090Z,17.73
2022-09-02T07:48:30.266Z,17.81
2022-09-02T07:50:57.984Z,17.83
2022-09-02T07:53:24.946Z,17.91
2022-09-02T07:55:51.427Z,17.94
2022-09-02T07:58:20.349Z,18.03
2022-09-02T08:00:47.147Z,18.08
2022-09-02T08:03:15.059Z,18.15
2022-09-02T08:05:44.914Z,18.18
2022-09-02T08:08:11.449Z,18.27
2022-09-02T08:10:38.045Z,18.29
2022-09-02T08:13:06.731Z,18.36
2022-09-02T08:15:34.905Z,18.42
2022-09-02T08:18:01.817Z,18.49
2022-09-02T08:20:30.450Z,18.55
2022-09-02T08:23:10.913Z,18.60
2022-09-02T08:25:38.514Z,18.72
2022-09-02T08:28:05.045Z,18.74
2022-09-02T08:30:31.505Z,18.81
2022-09-02T08:32:58.022Z,18.88
2022-09-02T08:35:24.572Z,18.97
2022-09-02T08:37:51.051Z,19.08
2022-09-02T08:40:20.462Z,19.09
2022-09-02T08:42:52.992Z,19.21
2022-09-02T08:45:30.543Z,19.26
2022-09-02T08:48:39.564Z,19.33
2022-09-02T08:51:09.823Z,19.40
2022-09-02T08:54:05.775Z,19.46
2022-09-02T08:56:32.264Z,19.58
2022-09-02T08:59:03.042Z,19.63
2022-09-02T09:01:44.352Z,19.68
2022-09-02T09:04:26.939Z,19.77
2022-09-02T09:07:26.478Z,19.85
2022-09-02T09:10:26.796Z,20.00
2022-09-02T09:13:36.298Z,20.05
2022-09-02T09:16:17.751Z,20.16
2022-09-02T09:18:50.784Z,20.21
2022-09-02T09:21:18.194Z,20.32
2022-09-02T09:23:45.201Z,20.35
2022-09-02T09:26:17.680Z,20.43
2022-09-02T09:28:48.180Z,20.53
2022-09-02T09:31:20.792Z,20.56
2022-09-02T09:34:00.973Z,20.65
2022-09-02T09:36:44.406Z,20.77
2022-09-02T09:39:17.914Z,20.92
2022-09-02T09:41:45.864Z,20.91
2022-09-02T09:44:38.818Z,21.10
2022-09-02T09:47:13.643Z,21.19
2022-09-02T09:49:43.833Z,21.22
2022-09-02T09:52:10.261Z,21.26
2022-09-02T09:54:36.700Z,21.35
2022-09-02T09:57:21.945Z,21.52
2022-09-02T09:59:49.974Z,21.62
2022-09-02T10:02:21.311Z,21.68
2022-09-02T10:04:47.945Z,21.79
2022-09-02T10:07:14.708Z,21.80
2022-09-02T10:09:41.531Z,21.91
2022-09-02T10:12:31.675Z,21.92
2022-09-02T10:14:58.177Z,21.87
2022-09-02T10:17:46.442Z,21.97
2022-09-02T10:20:25.990Z,21.94
2022-09-02T10:23:03.328Z,21.94
2022-09-02T10:25:40.991Z,21.92
2022-09-02T10:28:29.154Z,22.15
2022-09-02T10:31:18.772Z,22.25
2022-09-02T10:34:03.823Z,22.31
2022-09-02T10:36:52.374Z,22.37
2022-09-02T10:40:08.488Z,22.40
2022-09-02T10:42:48.349Z,22.55
2022-09-02T10:45:24.942Z,22.51
2022-09-02T10:48:12.991Z,22.57
2022-09-02T10:51:00.078Z,22.57
2022-09-02T10:53:33.277Z,22.62
2022-09-02T10:56:16.032Z,22.61
2022-09-02T10:58:50.526Z,22.65
2022-09-02T11:01:41.771Z,22.80
2022-09-02T11:04:13.512Z,22.86
2022-09-02T11:07:01.291Z,22.94
2022-09-02T11:09:37.945Z,23.04
2022-09-02T11:12:18.160Z,23.09
2022-09-02T11:14:59.484Z,23.06
2022-09-02T11:17:35.576Z,23.21
2022-09-02T11:20:10.163Z,23.27
2022-09-02T11:22:57.834Z,23.28
2022-09-02T11:25:28.138Z,23.27
2022-09-02T11:28:17.127Z,23.18
2022-09-02T11:33:22.522Z,23.04
2022-09-02T11:35:50.852Z,23.02
2022-09-02T11:38:36.962Z,23.09
2022-09-02T11:41:36.404Z,23.21
2022-09-02T11:44:35.713Z,23.30
2022-09-02T11:47:27.257Z,23.45
2022-09-02T11:50:35.845Z,23.44
2022-09-02T11:53:19.053Z,23.49
2022-09-02T11:55:52.166Z,23.54
2022-09-02T11:58:39.390Z,23.50
2022-09-02T12:01:14.970Z,23.49
2022-09-02T12:07:08.631Z,23.66
2022-09-02T12:12:36.533Z,23.81
2022-09-02T12:15:06.420Z,23.82
2022-09-02T12:17:43.209Z,23.88
2022-09-02T12:20:31.841Z,23.79
2022-09-02T12:23:00.006Z,23.85
2022-09-02T12:25:27.304Z,23.77
2022-09-02T12:28:18.840Z,23.72
2022-09-02T12:31:16.512Z,23.85
2022-09-02T12:33:52.170Z,23.88
2022-09-02T12:36:36.996Z,23.89
2022-09-02T12:39:25.555Z,23.83
2022-09-02T12:42:23.009Z,23.82
2022-09-02T12:45:10.663Z,23.82
2022-09-02T12:47:49.942Z,23.80
2022-09-02T12:50:51.873Z,23.82
2022-09-02T12:53:25.205Z,23.82
2022-09-02T12:56:04.316Z,23.74
2022-09-02T12:58:35.061Z,23.77
2022-09-02T13:01:10.622Z,23.75
2022-09-02T13:04:15.292Z,23.75
2022-09-02T13:07:00.489Z,23.79
2022-09-02T13:10:14.517Z,23.88
2022-09-02T13:13:09.283Z,23.97
2022-09-02T13:15:51.919Z,23.88
2022-09-02T13:18:51.787Z,24.01
2022-09-02T13:21:31.140Z,24.01
2022-09-02T13:24:21.370Z,24.02
2022-09-02T13:27:14.099Z,24.04
2022-09-02T13:29:52.541Z,24.09
2022-09-02T13:32:26.096Z,24.10
2022-09-02T13:34:56.029Z,24.15
2022-09-02T13:37:37.183Z,24.13
2022-09-02T13:40:36.351Z,24.17
2022-09-02T13:43:05.082Z,24.27
2022-09-02T13:45:35.190Z,24.23
2022-09-02T13:48:10.887Z,24.16
2022-09-02T13:50:42.088Z,24.19
2022-09-02T13:55:56.769Z,24.06
2022-09-02T13:58:29.179Z,24.02
2022-09-02T14:01:02.041Z,24.00
2022-09-02T14:03:32.700Z,24.09
2022-09-02T14:05:59.944Z,24.03
2022-09-02T14:08:28.710Z,24.08
2022-09-02T14:10:55.680Z,24.10
2022-09-02T14:13:23.236Z,24.15
2022-09-02T14:15:49.867Z,24.15
2022-09-02T14:18:19.105Z,24.09
2022-09-02T14:21:01.668Z,24.14
2022-09-02T14:23:30.670Z,24.17
2022-09-02T14:25:59.302Z,24.15
2022-09-02T14:28:28.442Z,24.08
2022-09-02T14:31:03.777Z,24.03
2022-09-02T14:33:36.338Z,24.01
2022-09-02T14:36:04.253Z,24.01
2022-09-02T14:38:44.708Z,23.97
2022-09-02T14:41:15.246Z,24.01
2022-09-02T14:43:45.150Z,24.04
2022-09-02T14:46:24.855Z,24.17
2022-09-02T14:49:28.157Z,24.26
2022-09-02T14:51:56.738Z,24.34
2022-09-02T14:54:44.394Z,24.45
2022-09-02T14:57:28.443Z,24.49
2022-09-02T15:00:00.925Z,24.52
2022-09-02T15:02:27.224Z,24.57
2022-09-02T15:04:58.526Z,24.59
2022-09-02T15:07:25.600Z,24.64
2022-09-02T15:09:52.659Z,24.65
2022-09-02T15:12:22.388Z,24.60
2022-09-02T15:14:48.801Z,24.59
2022-09-02T15:17:16.028Z,24.53
2022-09-02T15:19:42.460Z,24.56
2022-09-02T15:22:08.947Z,24.48
2022-09-02T15:24:35.510Z,24.36
2022-09-02T15:27:01.957Z,24.28
2022-09-02T15:29:29.183Z,24.32
2022-09-02T15:31:56.089Z,24.42
2022-09-02T15:34:26.276Z,24.38
2022-09-02T15:36:55.241Z,24.36
2022-09-02T15:39:22.869Z,24.15
2022-09-02T15:41:50.110Z,24.27
2022-09-02T15:44:17.936Z,24.22
2022-09-02T15:46:44.801Z,24.15
2022-09-02T15:49:13.702Z,24.21
2022-09-02T15:51:44.682Z,24.12
2022-09-02T15:54:15.481Z,23.93
2022-09-02T15:56:44.465Z,23.92
2022-09-02T15:59:20.170Z,23.76
2022-09-02T16:01:49.108Z,23.85
2022-09-02T16:04:15.992Z,23.71
2022-09-02T16:06:45.145Z,23.86
2022-09-02T16:09:13.077Z,23.89
2022-09-02T16:11:41.678Z,23.79
2022-09-02T16:14:08.451Z,23.71
2022-09-02T16:16:37.916Z,23.83
2022-09-02T16:19:05.636Z,23.76
2022-09-02T16:21:32.103Z,23.86
2022-09-02T16:23:58.558Z,23.96
2022-09-02T16:26:32.729Z,23.94
2022-09-02T16:29:01.739Z,24.10
2022-09-02T16:31:30.227Z,24.25
2022-09-02T16:34:02.689Z,24.23
2022-09-02T16:36:33.022Z,24.20
2022-09-02T16:39:03.318Z,24.28
2022-09-02T16:41:34.596Z,24.27
2022-09-02T16:44:03.880Z,24.22
2022-09-02T16:46:30.620Z,24.19
2022-09-02T16:48:57.184Z,24.11
2022-09-02T16:51:25.019Z,24.04
2022-09-02T16:53:56.530Z,23.97
2022-09-02T16:56:23.942Z,23.88
2022-09-02T16:58:52.471Z,23.81
2022-09-02T17:01:19.812Z,23.73
2022-09-02T17:03:47.618Z,23.57
2022-09-02T17:06:14.622Z,23.59
2022-09-02T17:08:43.031Z,23.53
2022-09-02T17:11:32.924Z,23.43
2022-09-02T17:14:09.454Z,23.39
2022-09-02T17:16:38.665Z,23.34
2022-09-02T17:19:05.628Z,23.27
2022-09-02T17:21:43.000Z,23.25
2022-09-02T17:24:11.009Z,23.21
2022-09-02T17:26:39.789Z,23.11
2022-09-02T17:29:46.815Z,23.06
2022-09-02T17:32:04.662Z,23.06
2022-09-02T17:34:33.250Z,23.07
2022-09-02T17:36:59.692Z,23.02
2022-09-02T17:39:26.799Z,22.99
2022-09-02T17:41:57.501Z,22.95
2022-09-02T17:44:27.040Z,22.93
2022-09-02T17:46:55.868Z,22.92
2022-09-02T17:49:22.516Z,22.93
2022-09-02T17:51:49.370Z,22.87
2022-09-02T17:54:15.897Z,22.80
2022-09-02T17:57:01.109Z,22.80
2022-09-02T17:59:39.886Z,22.72
2022-09-02T18:02:21.819Z,22.67
2022-09-02T18:04:51.098Z,22.66
2022-09-02T18:07:40.136Z,22.62
2022-09-02T18:10:06.833Z,22.60
2022-09-02T18:12:36.597Z,22.57
2022-09-02T18:15:04.729Z,22.54
2022-09-02T18:17:48.429Z,22.51
2022-09-02T18:20:39.450Z,22.46
2022-09-02T18:23:28.456Z,22.38
2022-09-02T18:26:22.773Z,22.38
2022-09-02T18:28:56.592Z,22.37
2022-09-02T18:31:54.253Z,22.31
2022-09-02T18:34:50.575Z,22.26
2022-09-02T18:37:35.755Z,22.21
2022-09-02T18:40:08.177Z,22.23
2022-09-02T18:42:58.631Z,22.16
2022-09-02T18:45:32.373Z,22.14
2022-09-02T18:48:02.444Z,22.14
2022-09-02T18:50:49.978Z,22.04
2022-09-02T18:53:24.545Z,22.04
2022-09-02T18:55:52.176Z,22.00
2022-09-02T18:58:47.997Z,21.98
2022-09-02T19:01:36.974Z,21.95
2022-09-02T19:04:03.461Z,21.94
2022-09-02T19:06:36.101Z,21.93
2022-09-02T19:09:13.591Z,21.92
2022-09-02T19:11:40.319Z,21.86
2022-09-02T19:14:15.793Z,21.83
2022-09-02T19:16:42.280Z,21.80
2022-09-02T19:19:09.427Z,21.75
2022-09-02T19:21:48.375Z,21.76
2022-09-02T19:24:21.340Z,21.77
2022-09-02T19:26:48.058Z,21.75
2022-09-02T19:29:15.563Z,21.72
2022-09-02T19:31:43.449Z,21.69
2022-09-02T19:34:10.570Z,21.67
2022-09-02T19:36:38.986Z,21.64
2022-09-02T19:39:05.512Z,21.62
2022-09-02T19:41:31.981Z,21.57
2022-09-02T19:44:00.030Z,21.55
2022-09-02T19:49:12.924Z,21.45
2022-09-02T19:51:40.763Z,21.44
2022-09-02T19:54:08.541Z,21.43
2022-09-02T19:56:35.126Z,21.38
2022-09-02T19:59:01.926Z,21.39
2022-09-02T20:01:28.429Z,21.35
2022-09-02T20:03:54.927Z,21.35
2022-09-02T20:06:21.440Z,21.35
2022-09-02T20:08:47.874Z,21.33
2022-09-02T20:11:14.346Z,21.30
2022-09-02T20:13:41.749Z,21.28
2022-09-02T20:16:19.831Z,21.22
2022-09-02T20:18:46.650Z,21.23
2022-09-02T20:21:27.439Z,21.22
2022-09-02T20:24:05.268Z,21.18
2022-09-02T20:26:43.858Z,21.18
2022-09-02T20:29:24.019Z,21.16
2022-09-02T20:32:25.072Z,21.16
2022-09-02T20:35:06.540Z,21.12
2022-09-02T20:37:54.405Z,21.08
2022-09-02T20:40:31.689Z,21.03
2022-09-02T20:43:16.961Z,20.97
2022-09-02T20:46:01.926Z,20.96
2022-09-02T20:49:00.474Z,20.95
2022-09-02T20:51:33.962Z,20.87
2022-09-02T20:54:06.226Z,20.89
2022-09-02T20:56:46.382Z,20.85
2022-09-02T20:59:57.612Z,20.83
2022-09-02T21:02:35.088Z,20.72
2022-09-02T21:05:39.843Z,20.70
2022-09-02T21:08:24.384Z,20.72
2022-09-02T21:10:52.497Z,20.67
2022-09-02T21:13:49.194Z,20.66
2022-09-02T21:16:36.041Z,20.63
2022-09-02T21:19:05.399Z,20.57
2022-09-02T21:21:55.589Z,20.56
2022-09-02T21:24:33.264Z,20.58
2022-09-02T21:27:03.854Z,20.56
2022-09-02T21:29:39.532Z,20.57
2022-09-02T21:32:18.196Z,20.56
2022-09-02T21:34:56.697Z,20.56
2022-09-02T21:37:23.229Z,20.54
2022-09-02T21:39:55.761Z,20.48
2022-09-02T21:42:50.074Z,20.43
2022-09-02T21:45:36.524Z,20.41
2022-09-02T21:48:33.840Z,20.38
2022-09-02T21:51:04.766Z,20.33
2022-09-02T21:54:00.656Z,20.28
2022-09-02T21:56:42.282Z,20.28
2022-09-02T21:59:30.498Z,20.27
2022-09-02T22:02:51.287Z,20.23
2022-09-02T22:05:30.796Z,20.15
2022-09-02T22:08:11.055Z,20.09
2022-09-02T22:10:53.998Z,20.06
2022-09-02T22:13:22.639Z,20.02
2022-09-02T22:15:59.601Z,19.99
2022-09-02T22:18:35.527Z,19.96
2022-09-02T22:21:08.809Z,19.95
2022-09-02T22:23:36.242Z,19.92
2022-09-02T22:26:24.335Z,19.89
2022-09-02T22:28:53.028Z,19.84
2022-09-02T22:31:25.902Z,19.82
2022-09-02T22:33:56.047Z,19.76
2022-09-02T22:36:37.041Z,19.72
2022-09-02T22:39:04.834Z,19.66
2022-09-02T22:41:34.246Z,19.61
2022-09-02T22:44:08.175Z,19.56
2022-09-02T22:47:12.880Z,19.52
2022-09-02T22:50:05.543Z,19.47
2022-09-02T22:52:46.113Z,19.41
2022-09-02T22:55:14.185Z,19.39
2022-09-02T22:58:20.935Z,19.35
2022-09-02T23:01:02.295Z,19.30
2022-09-02T23:03:56.718Z,19.26
2022-09-02T23:06:28.661Z,19.17
2022-09-02T23:08:56.116Z,19.08
2022-09-02T23:11:31.124Z,19.07
2022-09-02T23:14:08.957Z,19.03
2022-09-02T23:16:35.290Z,19.00
2022-09-02T23:19:26.150Z,18.99
2022-09-02T23:22:27.019Z,18.98
2022-09-02T23:25:15.508Z,18.93
2022-09-02T23:27:47.414Z,18.90
2022-09-02T23:30:14.811Z,18.86
2022-09-02T23:33:05.700Z,18.80
2022-09-02T23:35:35.316Z,18.78
2022-09-02T23:38:23.355Z,18.73
2022-09-02T23:40:55.742Z,18.69
2022-09-02T23:43:22.310Z,18.61
2022-09-02T23:45:48.814Z,18.61
2022-09-02T23:48:18.089Z,18.63
2022-09-02T23:51:24.992Z,18.50
2022-09-02T23:54:50.931Z,18.48
2022-09-02T23:57:27.228Z,18.48
